TimeEST,TemperatureF,Dew PointF,Humidity,Sea Level PressureIn,VisibilityMPH,Wind Direction,Wind SpeedMPH,Gust SpeedMPH,PrecipitationIn,Events,Conditions,WindDirDegrees,DateUTC
12:39 AM,51.8,48.2,88,30.11,3.0,NW,11.5,-,0.06,Rain,Rain,320,2012-12-05 05:39:00
12:51 AM,51.1,48.0,89,30.12,5.0,NW,12.7,-,0.07,Rain,Light Rain,320,2012-12-05 05:51:00
1:03 AM,50.0,46.4,87,30.13,5.0,NW,15.0,20.7,0.01,Rain,Light Rain,310,2012-12-05 06:03:00
1:16 AM,48.2,44.6,87,30.14,7.0,NNW,8.1,23.0,0.02,Rain,Light Rain,340,2012-12-05 06:16:00
1:27 AM,46.4,44.6,93,30.14,7.0,North,9.2,17.3,0.02,Rain,Light Rain,350,2012-12-05 06:27:00
1:51 AM,46.0,42.1,86,30.17,6.0,Calm,Calm,-,0.04,Rain,Light Rain,0,2012-12-05 06:51:00
2:02 AM,44.6,41.0,87,30.18,10.0,Calm,Calm,-,0.00,Rain,Light Rain,0,2012-12-05 07:02:00
2:38 AM,44.6,41.0,87,30.18,10.0,WNW,6.9,-,0.01,Rain,Light Rain,290,2012-12-05 07:38:00
2:51 AM,44.1,39.9,85,30.20,10.0,NW,5.8,-,0.01,Rain,Light Rain,310,2012-12-05 07:51:00
3:51 AM,43.0,39.9,89,30.22,10.0,WNW,6.9,-,0.01,,Overcast,300,2012-12-05 08:51:00
4:51 AM,43.0,37.0,80,30.20,10.0,Calm,Calm,-,N/A,,Overcast,0,2012-12-05 09:51:00
5:51 AM,41.0,37.0,86,30.23,10.0,WNW,3.5,-,N/A,,Partly Cloudy,300,2012-12-05 10:51:00
6:51 AM,39.9,36.0,86,30.25,10.0,Calm,Calm,-,N/A,,Clear,0,2012-12-05 11:51:00
7:51 AM,37.9,36.0,93,30.26,10.0,Calm,Calm,-,N/A,,Partly Cloudy,0,2012-12-05 12:51:00
9:51 AM,43.0,36.0,76,30.28,10.0,WNW,5.8,-,N/A,,Overcast,290,2012-12-05 14:51:00
10:51 AM,44.6,35.6,71,30.26,10.0,WNW,5.8,-,N/A,,Mostly Cloudy,300,2012-12-05 15:51:00
11:30 AM,46.4,35.6,66,30.25,10.0,WNW,6.9,-,N/A,,Scattered Clouds,290,2012-12-05 16:30:00
11:51 AM,45.0,34.0,65,30.27,10.0,WNW,10.4,-,N/A,,Partly Cloudy,290,2012-12-05 16:51:00
12:42 PM,46.4,33.8,62,30.24,10.0,West,9.2,17.3,N/A,,Mostly Cloudy,270,2012-12-05 17:42:00
12:51 PM,46.9,33.1,59,30.26,10.0,West,8.1,-,N/A,,Mostly Cloudy,270,2012-12-05 17:51:00
1:51 PM,46.0,32.0,58,30.25,10.0,West,6.9,16.1,N/A,,Clear,280,2012-12-05 18:51:00
2:51 PM,46.9,30.9,54,30.25,10.0,West,6.9,-,N/A,,Partly Cloudy,280,2012-12-05 19:51:00
3:51 PM,46.0,32.0,58,30.27,10.0,WNW,5.8,-,N/A,,Partly Cloudy,290,2012-12-05 20:51:00
4:51 PM,43.0,30.0,60,30.28,10.0,NW,6.9,-,N/A,,Mostly Cloudy,310,2012-12-05 21:51:00
5:51 PM,41.0,28.9,62,30.31,10.0,NW,3.5,-,N/A,,Clear,320,2012-12-05 22:51:00
6:51 PM,39.9,28.9,65,30.32,10.0,North,8.1,-,N/A,,Overcast,350,2012-12-05 23:51:00
7:51 PM,36.0,28.9,76,30.34,10.0,NNW,3.5,-,N/A,,Clear,340,2012-12-06 00:51:00
8:51 PM,34.0,27.0,75,30.34,10.0,NNW,4.6,-,N/A,,Clear,340,2012-12-06 01:51:00
9:31 PM,32.0,26.6,80,30.27,10.0,North,3.5,-,N/A,,Mostly Cloudy,10,2012-12-06 02:31:00
9:44 PM,30.2,26.6,86,30.27,10.0,Calm,Calm,-,N/A,,Scattered Clouds,0,2012-12-06 02:44:00
9:51 PM,28.9,26.1,89,30.34,10.0,Calm,Calm,-,N/A,,Partly Cloudy,0,2012-12-06 02:51:00
10:51 PM,27.0,24.1,89,30.33,10.0,Calm,Calm,-,N/A,,Clear,0,2012-12-06 03:51:00
11:51 PM,25.0,23.0,92,30.34,8.0,Calm,Calm,-,N/A,,Clear,0,2012-12-06 04:51:00